Time;durP1;ratioP1;P1;durP2;ratioP2;P2;SDS_P1;SDS_P2;PMS_P1;PMS_P2;Temp;Humidity;BMP_temperature;BMP_pressure;BME280_temperature;BME280_humidity;BME280_pressure;Samples;Min_cycle;Max_cycle;Signal;HPM_P1;HPM_P2
2023/05/31 05:03:51;;;;;;;2.92;1.40;;;15.40;68.50;;;;;;4830927;29;20327;-72
2023/05/31 05:06:17;;;;;;;4.50;1.70;;;15.40;68.30;;;;;;4833212;29;20097;-71
2023/05/31 05:08:44;;;;;;;4.30;1.70;;;15.50;66.80;;;;;;4816193;29;20066;-70
2023/05/31 05:11:11;;;;;;;4.88;1.40;;;15.50;67.90;;;;;;4813103;29;20026;-70
2023/05/31 05:13:37;;;;;;;6.28;1.50;;;15.60;67.30;;;;;;4818006;29;20034;-70
2023/05/31 05:16:03;;;;;;;4.47;1.38;;;15.80;66.40;;;;;;4836504;29;20034;-71
2023/05/31 05:18:29;;;;;;;3.78;1.23;;;15.90;66.50;;;;;;4810941;29;20311;-71
2023/05/31 05:20:56;;;;;;;6.03;1.40;;;15.90;65.30;;;;;;4820075;29;20061;-70
2023/05/31 05:23:25;;;;;;;3.28;1.23;;;16.10;65.60;;;;;;4820841;29;20030;-69
2023/05/31 05:25:51;;;;;;;3.50;1.33;;;16.10;65.10;;;;;;4814194;29;20039;-71
2023/05/31 05:28:17;;;;;;;4.97;2.15;;;16.20;65.20;;;;;;4814929;29;20034;-70
2023/05/31 05:30:44;;;;;;;5.60;1.50;;;16.30;66.30;;;;;;4814634;29;20027;-70
2023/05/31 05:33:11;;;;;;;6.25;1.88;;;16.20;64.70;;;;;;4814099;29;20101;-70
2023/05/31 05:35:37;;;;;;;4.32;1.60;;;16.30;64.90;;;;;;4820643;29;20079;-69
2023/05/31 05:38:02;;;;;;;4.30;1.55;;;16.40;66.80;;;;;;4820158;29;20038;-72
2023/05/31 05:40:28;;;;;;;7.28;1.77;;;16.40;65.20;;;;;;4836779;29;20204;-72
2023/05/31 05:42:54;;;;;;;6.07;1.80;;;16.50;64.50;;;;;;4820435;29;20023;-71
2023/05/31 05:45:21;;;;;;;5.20;1.23;;;16.50;64.40;;;;;;4836052;29;20300;-74
2023/05/31 05:47:48;;;;;;;4.68;1.52;;;16.60;65.00;;;;;;4836929;29;20038;-70
2023/05/31 05:50:16;;;;;;;4.00;1.67;;;16.60;64.80;;;;;;4819948;29;20447;-70
2023/05/31 05:52:42;;;;;;;3.85;1.42;;;16.70;64.40;;;;;;4820281;29;20346;-71
2023/05/31 05:55:08;;;;;;;6.53;1.70;;;16.70;65.40;;;;;;4835519;29;20102;-71
2023/05/31 05:57:34;;;;;;;6.82;2.08;;;16.80;65.00;;;;;;4820244;29;20034;-71
2023/05/31 06:00:17;;;;;;;6.38;1.50;;;17.00;64.90;;;;;;4819564;29;20082;-71
2023/05/31 06:02:45;;;;;;;4.45;1.70;;;17.10;65.30;;;;;;4819757;29;20277;-71
2023/05/31 06:05:12;;;;;;;11.77;2.40;;;17.20;65.70;;;;;;4819502;29;20034;-71
2023/05/31 06:07:38;;;;;;;5.72;1.80;;;17.30;65.20;;;;;;4819993;29;20041;-71
2023/05/31 06:10:04;;;;;;;6.07;2.53;;;17.30;64.60;;;;;;4811263;29;20249;-71
2023/05/31 06:12:30;;;;;;;7.15;1.40;;;17.50;66.30;;;;;;4818024;29;20039;-70
2023/05/31 06:14:57;;;;;;;5.30;1.80;;;17.60;64.00;;;;;;4801647;29;20026;-70
2023/05/31 06:17:23;;;;;;;7.95;1.70;;;17.60;65.50;;;;;;4817673;29;20043;-72
2023/05/31 06:19:49;;;;;;;5.47;1.90;;;17.70;63.90;;;;;;4801155;29;20253;-70
2023/05/31 06:22:14;;;;;;;13.18;2.30;;;17.80;64.00;;;;;;4804470;29;20086;-71
2023/05/31 06:24:42;;;;;;;7.80;1.95;;;17.90;64.30;;;;;;4813241;29;20045;-70
2023/05/31 06:27:08;;;;;;;3.88;1.60;;;18.00;65.30;;;;;;4829445;29;20034;-71
2023/05/31 06:29:38;;;;;;;4.80;1.55;;;18.10;63.50;;;;;;4796206;29;20401;-71
2023/05/31 06:32:14;;;;;;;5.35;1.42;;;18.10;62.70;;;;;;4808040;29;20328;-71
2023/05/31 06:34:43;;;;;;;4.72;2.00;;;18.20;64.00;;;;;;4818679;29;20044;-72
2023/05/31 06:37:11;;;;;;;5.47;1.58;;;18.30;64.40;;;;;;4804695;29;20046;-72
2023/05/31 06:39:36;;;;;;;4.63;1.73;;;18.40;62.30;;;;;;4813753;29;20114;-72
2023/05/31 06:42:02;;;;;;;7.80;1.70;;;18.40;62.70;;;;;;4801108;29;20058;-73
2023/05/31 06:45:02;;;;;;;;;;;18.40;61.80;;;;;;4809083;29;20035;-72
2023/05/31 06:47:51;;;;;;;3.08;1.48;;;18.50;62.00;;;;;;4812436;29;19915;-72
2023/05/31 06:50:19;;;;;;;4.07;1.40;;;18.50;61.50;;;;;;4816801;29;20425;-73
2023/05/31 06:52:45;;;;;;;5.97;1.73;;;18.60;61.60;;;;;;4817459;29;20027;-72
2023/05/31 06:55:29;;;;;;;4.88;1.50;;;18.70;61.30;;;;;;4817018;29;20106;-70
2023/05/31 06:57:56;;;;;;;6.35;1.88;;;18.80;60.90;;;;;;4809487;29;20039;-70
2023/05/31 07:00:21;;;;;;;7.25;1.80;;;18.90;61.30;;;;;;4821636;29;20322;-70
2023/05/31 07:02:47;;;;;;;4.85;1.48;;;18.90;60.60;;;;;;4841406;29;20058;-71
2023/05/31 07:05:13;;;;;;;7.00;1.95;;;18.80;60.90;;;;;;4818734;29;20098;-70
2023/05/31 07:07:39;;;;;;;7.32;1.73;;;18.90;61.30;;;;;;4819212;29;20366;-70
2023/05/31 07:10:05;;;;;;;6.45;2.00;;;19.00;61.50;;;;;;4815464;29;20030;-71
2023/05/31 07:12:31;;;;;;;4.93;1.80;;;19.10;61.20;;;;;;4817186;29;20047;-71
2023/05/31 07:14:57;;;;;;;2.78;1.38;;;19.20;61.00;;;;;;4817095;29;20091;-71
2023/05/31 07:17:22;;;;;;;5.82;1.70;;;19.30;60.90;;;;;;4800455;29;20134;-71
2023/05/31 07:19:49;;;;;;;6.05;1.40;;;19.50;60.60;;;;;;4806759;29;20066;-71
2023/05/31 07:22:16;;;;;;;10.15;2.25;;;19.50;60.80;;;;;;4824370;29;20030;-71
2023/05/31 07:24:42;;;;;;;7.82;1.85;;;19.60;60.60;;;;;;4834959;29;20105;-70
2023/05/31 07:27:08;;;;;;;3.78;1.60;;;19.70;60.40;;;;;;4834578;29;20038;-69
2023/05/31 07:29:34;;;;;;;6.55;1.92;;;19.70;60.10;;;;;;4834772;29;20181;-71
2023/05/31 07:32:00;;;;;;;7.07;2.17;;;19.80;60.00;;;;;;4834785;29;20046;-71
2023/05/31 07:34:26;;;;;;;10.32;2.10;;;20.00;59.90;;;;;;4817860;29;20042;-72
2023/05/31 07:36:52;;;;;;;8.25;1.70;;;20.00;59.80;;;;;;4834482;29;20131;-70
2023/05/31 07:39:20;;;;;;;8.13;2.05;;;20.10;59.00;;;;;;4834186;29;20320;-70
2023/05/31 07:41:46;;;;;;;7.85;1.90;;;20.20;59.60;;;;;;4834269;29;20258;-70
2023/05/31 07:44:11;;;;;;;4.90;1.65;;;20.20;59.20;;;;;;4834199;29;20101;-72
2023/05/31 07:46:37;;;;;;;5.55;1.67;;;20.30;59.20;;;;;;4818024;29;20439;-69
2023/05/31 07:49:03;;;;;;;4.45;1.80;;;20.40;59.10;;;;;;4834116;29;20046;-70
2023/05/31 07:51:30;;;;;;;4.97;1.52;;;20.40;59.20;;;;;;4834456;29;20057;-70
2023/05/31 07:53:56;;;;;;;8.57;1.90;;;20.60;59.00;;;;;;4834210;29;20053;-71
2023/05/31 07:56:22;;;;;;;7.32;1.67;;;20.70;58.60;;;;;;4817561;29;20041;-70
2023/05/31 07:58:48;;;;;;;5.35;2.15;;;20.80;58.50;;;;;;4826968;29;20042;-68
2023/05/31 08:01:13;;;;;;;5.20;1.70;;;20.80;58.10;;;;;;4815603;29;20050;-69
2023/05/31 08:03:41;;;;;;;8.18;1.92;;;20.90;58.10;;;;;;4815676;29;20057;-71
2023/05/31 08:06:07;;;;;;;4.10;1.65;;;21.00;58.40;;;;;;4815532;29;20038;-73
2023/05/31 08:08:33;;;;;;;7.60;1.63;;;21.10;58.40;;;;;;4815852;29;20048;-73
2023/05/31 08:11:00;;;;;;;8.02;2.75;;;21.10;58.40;;;;;;4827916;29;20030;-73
2023/05/31 08:13:27;;;;;;;5.03;1.67;;;21.10;57.70;;;;;;4833915;29;20026;-73
2023/05/31 08:15:52;;;;;;;5.40;2.03;;;21.10;58.10;;;;;;4834230;29;20034;-73
2023/05/31 08:18:18;;;;;;;6.25;1.83;;;21.20;57.80;;;;;;4817156;29;20050;-69
2023/05/31 08:20:44;;;;;;;7.80;1.73;;;21.20;57.90;;;;;;4834055;29;20075;-70
2023/05/31 08:23:18;;;;;;;7.55;2.05;;;21.30;58.80;;;;;;4833447;29;20087;-73
2023/05/31 08:25:43;;;;;;;8.20;1.77;;;21.40;58.90;;;;;;4833996;29;20030;-72
2023/05/31 08:28:09;;;;;;;5.32;1.80;;;21.60;58.30;;;;;;4833144;29;20147;-70
2023/05/31 08:30:35;;;;;;;6.25;2.10;;;21.70;58.00;;;;;;4833997;29;20086;-72
2023/05/31 08:33:02;;;;;;;14.98;2.53;;;21.80;58.30;;;;;;4833598;29;20038;-72
2023/05/31 08:35:27;;;;;;;8.55;1.98;;;22.00;57.80;;;;;;4833294;29;20034;-70
2023/05/31 08:37:54;;;;;;;8.02;2.33;;;22.00;57.30;;;;;;4833848;29;20128;-71
2023/05/31 08:40:21;;;;;;;6.25;1.80;;;22.00;57.50;;;;;;4833314;29;20038;-71
2023/05/31 08:42:59;;;;;;;6.30;1.73;;;21.90;57.00;;;;;;4833743;29;20030;-72
2023/05/31 08:45:28;;;;;;;5.53;1.77;;;21.90;56.70;;;;;;4833780;29;20034;-72
2023/05/31 08:48:13;;;;;;;;;;;21.90;57.40;;;;;;4833665;29;20027;-70
2023/05/31 08:50:41;;;;;;;4.82;1.52;;;22.00;57.30;;;;;;4833590;29;19912;-72
2023/05/31 08:53:07;;;;;;;7.35;1.90;;;22.10;56.80;;;;;;4832964;29;20201;-72
2023/05/31 08:55:35;;;;;;;4.03;1.60;;;22.20;57.10;;;;;;4812865;29;20271;-71
2023/05/31 08:58:02;;;;;;;7.47;1.98;;;22.40;56.90;;;;;;4831712;29;20038;-71
2023/05/31 09:00:28;;;;;;;8.63;2.05;;;22.50;56.80;;;;;;4833290;29;20215;-71
2023/05/31 09:02:54;;;;;;;6.57;1.70;;;22.70;56.80;;;;;;4833123;29;20050;-72
2023/05/31 09:05:20;;;;;;;5.70;1.80;;;22.70;56.20;;;;;;4833174;29;20045;-71
2023/05/31 09:07:49;;;;;;;4.13;1.48;;;22.80;56.10;;;;;;4833227;29;20046;-72
2023/05/31 09:10:16;;;;;;;7.18;1.98;;;22.80;56.40;;;;;;4823451;29;20062;-71
2023/05/31 09:12:42;;;;;;;7.07;1.80;;;22.80;56.30;;;;;;4815307;29;20098;-71
2023/05/31 09:15:14;;;;;;;8.30;1.80;;;22.80;55.90;;;;;;4813821;29;20046;-74
2023/05/31 09:17:44;;;;;;;5.60;2.10;;;22.80;55.20;;;;;;4815240;29;20042;-73
2023/05/31 09:20:10;;;;;;;6.38;1.95;;;22.90;55.20;;;;;;4814228;29;20043;-72
2023/05/31 09:22:36;;;;;;;5.57;1.80;;;23.00;55.50;;;;;;4820309;29;20046;-71
2023/05/31 09:25:02;;;;;;;3.55;1.65;;;23.10;56.70;;;;;;4821050;29;20035;-71
2023/05/31 09:27:36;;;;;;;7.78;2.22;;;23.10;55.00;;;;;;4824366;29;20383;-71
2023/05/31 09:30:20;;;;;;;8.00;1.80;;;23.30;56.70;;;;;;4820540;29;20042;-70
2023/05/31 09:32:53;;;;;;;4.60;1.58;;;23.50;55.00;;;;;;4819554;29;20046;-71
2023/05/31 09:35:23;;;;;;;13.25;2.67;;;23.40;54.10;;;;;;4814355;29;20049;-69
2023/05/31 09:37:49;;;;;;;9.32;2.08;;;23.40;54.20;;;;;;4814815;29;20051;-72
2023/05/31 09:40:24;;;;;;;13.02;3.17;;;23.50;54.50;;;;;;4816322;29;20258;-72
2023/05/31 09:42:50;;;;;;;7.00;1.83;;;23.50;54.60;;;;;;4833231;29;20030;-72
2023/05/31 09:45:17;;;;;;;8.40;1.95;;;23.50;54.00;;;;;;4832267;29;20031;-71
2023/05/31 09:47:43;;;;;;;8.70;1.98;;;23.60;54.20;;;;;;4833118;29;20245;-70
2023/05/31 09:50:19;;;;;;;7.22;1.88;;;23.60;53.40;;;;;;4832754;29;20026;-71
2023/05/31 09:52:46;;;;;;;7.50;2.00;;;23.60;53.90;;;;;;4832746;29;20034;-71
2023/05/31 09:55:14;;;;;;;5.85;2.10;;;23.60;52.80;;;;;;4829586;29;20201;-71
2023/05/31 09:57:41;;;;;;;6.35;1.95;;;23.80;54.30;;;;;;4802140;29;20031;-72
2023/05/31 10:00:18;;;;;;;6.30;1.60;;;23.90;53.10;;;;;;4828532;29;20065;-71
2023/05/31 10:02:49;;;;;;;9.85;1.75;;;23.90;52.80;;;;;;4836632;29;20315;-70
2023/05/31 10:05:16;;;;;;;8.85;1.98;;;23.90;53.10;;;;;;4835741;29;20034;-69
2023/05/31 10:07:45;;;;;;;7.05;1.67;;;23.90;52.70;;;;;;4820187;29;20257;-70
2023/05/31 10:10:11;;;;;;;6.75;2.03;;;23.90;53.30;;;;;;4835782;29;20313;-71
2023/05/31 10:12:49;;;;;;;6.00;1.77;;;24.00;54.10;;;;;;4836243;29;20071;-70
2023/05/31 10:15:26;;;;;;;11.80;2.50;;;24.10;53.50;;;;;;4835536;29;20067;-69
2023/05/31 10:18:07;;;;;;;10.15;2.13;;;24.10;54.40;;;;;;4835892;29;20065;-70
2023/05/31 10:20:41;;;;;;;10.45;2.53;;;24.30;55.30;;;;;;4835187;29;20077;-73
2023/05/31 10:23:19;;;;;;;12.90;3.97;;;24.40;55.40;;;;;;4836080;29;20045;-70
2023/05/31 10:25:48;;;;;;;;;;;24.40;54.80;;;;;;4829495;29;20051;-70
2023/05/31 10:28:18;;;;;;;12.70;4.60;;;24.30;52.50;;;;;;4817438;29;19909;-71
2023/05/31 10:30:48;;;;;;;9.15;3.10;;;24.30;51.00;;;;;;4824582;29;20042;-71
2023/05/31 10:33:15;;;;;;;8.77;3.40;;;24.40;50.70;;;;;;4835388;29;20038;-71
2023/05/31 10:35:41;;;;;;;12.00;5.10;;;24.40;51.10;;;;;;4835771;29;20054;-71
2023/05/31 10:38:09;;;;;;;20.63;8.93;;;24.50;50.70;;;;;;4835693;29;20057;-71
2023/05/31 10:40:47;;;;;;;7.03;2.70;;;24.70;53.70;;;;;;4835201;29;20284;-71
2023/05/31 10:43:35;;;;;;;14.05;5.68;;;24.80;50.20;;;;;;4835858;29;20045;-73
2023/05/31 10:46:10;;;;;;;8.80;3.20;;;24.80;52.10;;;;;;4835535;29;20109;-71
2023/05/31 10:48:43;;;;;;;11.52;4.65;;;24.80;51.00;;;;;;4835098;29;20050;-73
2023/05/31 10:51:10;;;;;;;21.80;6.68;;;24.80;51.70;;;;;;4819408;29;20030;-74
2023/05/31 10:53:37;;;;;;;14.95;5.03;;;24.90;52.20;;;;;;4834528;29;20054;-74
2023/05/31 10:56:11;;;;;;;14.53;4.27;;;24.80;51.80;;;;;;4816547;29;20030;-73
2023/05/31 10:58:38;;;;;;;11.60;4.40;;;25.00;52.80;;;;;;4819082;29;20039;-73
2023/05/31 11:01:13;;;;;;;15.83;3.57;;;25.10;51.00;;;;;;4807892;29;20320;-72
2023/05/31 11:03:50;;;;;;;29.05;6.32;;;25.10;50.50;;;;;;4827497;29;20057;-72
2023/05/31 11:06:22;;;;;;;11.73;3.47;;;25.20;51.50;;;;;;4810171;29;20047;-74
2023/05/31 11:09:08;;;;;;;9.35;2.95;;;25.20;50.70;;;;;;4822614;29;20035;-75
2023/05/31 11:11:33;;;;;;;8.80;3.05;;;25.40;51.60;;;;;;4817951;29;20080;-72
2023/05/31 11:14:07;;;;;;;11.23;4.03;;;25.40;51.00;;;;;;4822126;29;20039;-72
2023/05/31 11:16:53;;;;;;;10.73;3.45;;;25.50;51.30;;;;;;4816110;29;20043;-74
2023/05/31 11:19:38;;;;;;;11.20;3.92;;;25.80;50.10;;;;;;4816157;29;20049;-73
2023/05/31 11:22:15;;;;;;;23.70;5.07;;;25.90;49.30;;;;;;4828711;29;20038;-73
2023/05/31 11:24:48;;;;;;;6.13;2.67;;;26.10;51.50;;;;;;4835124;29;20114;-74
2023/05/31 11:27:14;;;;;;;6.75;2.70;;;26.20;48.50;;;;;;4834807;29;20494;-73
2023/05/31 11:29:48;;;;;;;7.72;2.60;;;26.20;49.50;;;;;;4834736;29;20034;-73
2023/05/31 11:32:15;;;;;;;7.53;2.30;;;26.50;47.10;;;;;;4834770;29;20075;-72
2023/05/31 11:35:00;;;;;;;7.25;1.90;;;26.80;47.90;;;;;;4827687;29;20038;-74
2023/05/31 11:37:29;;;;;;;5.85;1.80;;;27.30;46.70;;;;;;4818057;29;20031;-74
2023/05/31 11:39:56;;;;;;;12.80;2.25;;;27.80;46.90;;;;;;4835180;29;20082;-73
2023/05/31 11:42:22;;;;;;;20.63;3.20;;;28.50;46.90;;;;;;4834139;29;20049;-74
2023/05/31 11:44:50;;;;;;;8.30;2.97;;;29.30;53.80;;;;;;4834786;29;20053;-71
2023/05/31 11:47:51;;;;;;;6.43;2.33;;;29.90;48.40;;;;;;4834810;29;20113;-72
2023/05/31 11:50:17;;;;;;;10.32;2.40;;;30.90;49.60;;;;;;4834057;29;20352;-73
2023/05/31 11:52:44;;;;;;;9.77;2.58;;;31.80;44.40;;;;;;4834624;29;20097;-75
2023/05/31 11:55:10;;;;;;;6.53;1.98;;;32.80;43.40;;;;;;4818265;29;20046;-73
2023/05/31 11:57:44;;;;;;;5.22;1.70;;;33.20;43.00;;;;;;4825995;29;20035;-75
2023/05/31 12:00:11;;;;;;;7.38;2.25;;;34.30;42.40;;;;;;4834782;29;20035;-73
2023/05/31 12:02:41;;;;;;;12.18;2.70;;;35.00;42.70;;;;;;4833716;29;20103;-74
2023/05/31 12:05:17;;;;;;;5.38;1.90;;;35.30;41.10;;;;;;4834572;29;20064;-75
2023/05/31 12:07:44;;;;;;;5.18;1.73;;;34.40;41.60;;;;;;4834308;29;20042;-74
2023/05/31 12:10:10;;;;;;;11.57;2.70;;;34.60;41.70;;;;;;4825421;29;20095;-74
2023/05/31 12:12:38;;;;;;;9.60;2.17;;;34.80;41.50;;;;;;4815292;29;20220;-74
2023/05/31 12:15:04;;;;;;;13.02;7.10;;;35.50;41.40;;;;;;4816228;29;20050;-75
2023/05/31 12:17:31;;;;;;;10.48;3.45;;;36.20;40.80;;;;;;4815640;29;20329;-74
2023/05/31 12:19:57;;;;;;;4.40;1.47;;;36.20;42.00;;;;;;4816279;29;20070;-73
2023/05/31 12:22:22;;;;;;;6.07;2.55;;;36.50;40.10;;;;;;4815420;29;20038;-72
2023/05/31 12:24:55;;;;;;;6.70;2.42;;;36.70;40.80;;;;;;4815492;29;20141;-72
2023/05/31 12:27:27;;;;;;;5.28;1.60;;;37.00;40.00;;;;;;4815130;29;20182;-72
2023/05/31 12:29:56;;;;;;;3.65;1.60;;;36.80;38.80;;;;;;4815630;29;20327;-73
2023/05/31 12:32:27;;;;;;;6.57;1.80;;;36.10;39.00;;;;;;4815488;29;20083;-73
2023/05/31 12:35:02;;;;;;;4.10;2.20;;;36.60;38.40;;;;;;4815866;29;20046;-72
2023/05/31 12:37:28;;;;;;;2.85;1.27;;;36.20;39.00;;;;;;4814931;29;20039;-71
2023/05/31 12:40:11;;;;;;;7.05;1.70;;;35.90;38.60;;;;;;4815872;29;20142;-71
2023/05/31 12:42:37;;;;;;;4.22;1.38;;;36.90;38.10;;;;;;4815133;29;20332;-74
2023/05/31 12:45:08;;;;;;;3.63;1.70;;;37.60;37.50;;;;;;4815477;29;20044;-72
2023/05/31 12:47:35;;;;;;;2.85;1.63;;;38.10;37.90;;;;;;4815411;29;20049;-73
2023/05/31 12:50:06;;;;;;;5.25;1.70;;;38.50;37.20;;;;;;4815288;29;20351;-72
2023/05/31 12:52:33;;;;;;;6.43;2.00;;;38.70;37.40;;;;;;4814883;29;20039;-73
2023/05/31 12:55:01;;;;;;;3.88;1.45;;;39.00;37.40;;;;;;4813461;29;20043;-71
2023/05/31 12:57:27;;;;;;;8.95;2.97;;;39.40;36.70;;;;;;4825224;29;20035;-72
2023/05/31 13:00:08;;;;;;;7.00;1.88;;;39.60;36.30;;;;;;4815219;29;20035;-72
2023/05/31 13:02:34;;;;;;;10.90;3.42;;;39.70;36.00;;;;;;4814503;29;20055;-71
2023/05/31 13:04:59;;;;;;;23.05;3.53;;;40.40;36.50;;;;;;4815326;29;20091;-72
2023/05/31 13:07:25;;;;;;;8.20;1.92;;;40.80;35.70;;;;;;4814803;29;20049;-74
2023/05/31 13:09:51;;;;;;;24.45;3.88;;;40.70;36.20;;;;;;4816644;29;20034;-72
2023/05/31 13:12:18;;;;;;;9.65;2.28;;;41.40;36.50;;;;;;4833811;29;20042;-74
2023/05/31 13:14:44;;;;;;;6.00;1.67;;;41.90;35.70;;;;;;4833070;29;20046;-72
2023/05/31 13:17:10;;;;;;;3.72;1.38;;;42.20;35.50;;;;;;4817241;29;20216;-74
2023/05/31 13:19:36;;;;;;;4.50;1.52;;;41.70;35.60;;;;;;4833097;29;20049;-73
2023/05/31 13:22:02;;;;;;;10.43;1.58;;;40.80;36.00;;;;;;4827202;29;20105;-73
2023/05/31 13:24:28;;;;;;;4.75;1.40;;;41.40;36.00;;;;;;4828985;29;20093;-73
2023/05/31 13:26:54;;;;;;;10.63;2.05;;;42.50;35.10;;;;;;4823279;29;20038;-72
2023/05/31 13:29:22;;;;;;;4.28;1.42;;;42.90;34.90;;;;;;4825181;29;20287;-72
2023/05/31 13:31:49;;;;;;;5.10;1.52;;;43.30;35.20;;;;;;4816689;29;20042;-74
2023/05/31 13:34:14;;;;;;;6.05;1.70;;;43.60;33.30;;;;;;4815598;29;20046;-72
2023/05/31 13:36:40;;;;;;;13.02;2.13;;;42.80;34.70;;;;;;4818286;29;20038;-74
2023/05/31 13:39:06;;;;;;;4.38;1.30;;;42.40;35.40;;;;;;4818520;29;20042;-73
2023/05/31 13:41:33;;;;;;;5.40;1.60;;;42.20;33.80;;;;;;4831912;29;20042;-72
2023/05/31 13:43:59;;;;;;;4.57;1.52;;;42.10;34.70;;;;;;4836653;29;20153;-74
2023/05/31 13:46:26;;;;;;;5.97;1.20;;;41.70;33.50;;;;;;4820077;29;20257;-73
2023/05/31 13:48:52;;;;;;;3.95;1.48;;;41.70;34.00;;;;;;4836480;29;20387;-75
2023/05/31 13:51:18;;;;;;;9.88;8.27;;;42.70;35.00;;;;;;4836787;29;20034;-74
2023/05/31 13:53:44;;;;;;;4.40;1.40;;;43.60;34.40;;;;;;4833059;29;20031;-74
2023/05/31 13:56:10;;;;;;;2.80;1.05;;;43.70;34.10;;;;;;4822522;29;20035;-74
2023/05/31 13:58:36;;;;;;;3.42;1.38;;;43.50;33.60;;;;;;4817890;29;20363;-74
2023/05/31 14:01:07;;;;;;;4.10;1.25;;;43.10;33.80;;;;;;4818397;29;20043;-73
2023/05/31 14:03:33;;;;;;;5.60;1.70;;;43.00;33.30;;;;;;4817393;29;20062;-73
2023/05/31 14:05:59;;;;;;;2.83;1.30;;;42.50;33.60;;;;;;4818409;29;20062;-74
2023/05/31 14:08:26;;;;;;;8.30;1.77;;;41.40;34.20;;;;;;4818338;29;20051;-73
2023/05/31 14:10:52;;;;;;;3.00;1.27;;;41.90;34.20;;;;;;4825726;29;20030;-72
2023/05/31 14:13:18;;;;;;;6.10;1.38;;;42.30;33.50;;;;;;4836269;29;20097;-73
2023/05/31 14:15:44;;;;;;;7.28;1.48;;;42.20;34.30;;;;;;4835988;29;20046;-75
2023/05/31 14:18:10;;;;;;;13.57;1.95;;;42.20;33.10;;;;;;4835545;29;20066;-71
2023/05/31 14:20:36;;;;;;;4.57;1.30;;;43.40;33.90;;;;;;4829221;29;20039;-70
2023/05/31 14:23:03;;;;;;;4.50;1.27;;;44.40;33.60;;;;;;4831443;29;20034;-71
2023/05/31 14:25:29;;;;;;;3.92;1.15;;;44.20;33.70;;;;;;4834663;29;20061;-69
2023/05/31 14:27:54;;;;;;;4.95;1.38;;;44.60;32.80;;;;;;4835273;29;20077;-75
2023/05/31 14:30:20;;;;;;;5.70;1.50;;;44.80;33.20;;;;;;4836041;29;20026;-72
2023/05/31 14:32:46;;;;;;;2.22;1.27;;;44.60;32.70;;;;;;4835707;29;20385;-74
2023/05/31 14:35:12;;;;;;;5.28;1.20;;;43.90;32.70;;;;;;4836066;29;20338;-72
2023/05/31 14:37:38;;;;;;;3.50;1.30;;;43.10;32.60;;;;;;4835314;29;20118;-70
2023/05/31 14:40:05;;;;;;;5.07;1.20;;;44.20;32.80;;;;;;4835472;29;20045;-72
2023/05/31 14:42:31;;;;;;;7.60;1.23;;;44.50;33.20;;;;;;4834929;29;20515;-72
2023/05/31 14:44:56;;;;;;;5.10;2.90;;;44.40;33.10;;;;;;4835642;29;20439;-74
2023/05/31 14:47:22;;;;;;;4.50;1.50;;;45.20;33.50;;;;;;4834974;29;20064;-73
2023/05/31 14:49:48;;;;;;;5.38;1.15;;;44.70;34.60;;;;;;4834990;29;20073;-74
2023/05/31 14:52:14;;;;;;;6.25;1.13;;;44.90;33.70;;;;;;4835518;29;20093;-72
2023/05/31 14:54:40;;;;;;;5.57;1.50;;;45.00;33.60;;;;;;4834733;29;20031;-73
2023/05/31 14:57:06;;;;;;;4.30;1.43;;;45.60;36.60;;;;;;4820297;29;20026;-73
2023/05/31 14:59:32;;;;;;;3.17;1.25;;;45.50;35.30;;;;;;4817006;29;20030;-72
2023/05/31 15:01:59;;;;;;;3.83;0.97;;;46.40;34.30;;;;;;4816947;29;20252;-71
2023/05/31 15:04:25;;;;;;;4.15;1.38;;;46.20;33.10;;;;;;4817117;29;20046;-72
2023/05/31 15:06:52;;;;;;;6.35;1.27;;;46.20;33.40;;;;;;4816376;29;20051;-71
2023/05/31 15:09:20;;;;;;;3.47;1.33;;;46.10;34.20;;;;;;4817296;29;20224;-73
2023/05/31 15:11:45;;;;;;;4.32;1.33;;;45.60;35.00;;;;;;4829753;29;20034;-72
2023/05/31 15:14:13;;;;;;;3.65;1.52;;;45.60;34.10;;;;;;4835437;29;20118;-73
2023/05/31 15:16:38;;;;;;;3.72;1.38;;;45.30;34.70;;;;;;4834321;29;20061;-73
2023/05/31 15:19:04;;;;;;;4.93;1.23;;;45.00;34.60;;;;;;4834869;29;20039;-73
2023/05/31 15:21:31;;;;;;;3.60;1.30;;;45.30;34.70;;;;;;4835228;29;20022;-74
2023/05/31 15:23:56;;;;;;;3.20;1.25;;;45.30;35.60;;;;;;4835061;29;20101;-74
2023/05/31 15:26:23;;;;;;;9.73;1.93;;;45.40;37.10;;;;;;4834700;29;20042;-72
2023/05/31 15:28:49;;;;;;;3.20;1.33;;;45.60;32.20;;;;;;4834568;29;20097;-73
2023/05/31 15:31:15;;;;;;;4.82;1.88;;;45.80;32.40;;;;;;4834998;29;20090;-73
2023/05/31 15:33:41;;;;;;;4.17;1.17;;;45.10;32.40;;;;;;4834216;29;20026;-72
2023/05/31 15:36:07;;;;;;;6.72;1.38;;;45.00;32.90;;;;;;4835047;29;20030;-73
2023/05/31 15:38:33;;;;;;;3.13;1.20;;;44.50;33.00;;;;;;4834319;29;20101;-73
2023/05/31 15:40:58;;;;;;;3.50;1.40;;;43.90;33.40;;;;;;4834576;29;20141;-73
2023/05/31 15:43:25;;;;;;;3.00;1.30;;;43.80;34.30;;;;;;4834982;29;20332;-73
2023/05/31 15:45:51;;;;;;;3.97;1.60;;;43.60;34.20;;;;;;4834166;29;20054;-73
2023/05/31 15:48:18;;;;;;;6.45;1.65;;;44.20;34.30;;;;;;4834830;29;20156;-73
2023/05/31 15:50:44;;;;;;;2.90;1.30;;;43.60;34.50;;;;;;4834053;29;20037;-73
2023/05/31 15:53:09;;;;;;;4.82;1.50;;;44.00;36.90;;;;;;4834929;29;20216;-71
2023/05/31 15:55:36;;;;;;;2.63;1.38;;;44.20;34.30;;;;;;4821723;29;20041;-72
2023/05/31 15:58:03;;;;;;;4.95;1.70;;;44.50;34.60;;;;;;4833751;29;20316;-72
2023/05/31 16:00:29;;;;;;;3.58;1.40;;;45.20;35.00;;;;;;4834712;29;20061;-71
2023/05/31 16:02:54;;;;;;;3.10;1.20;;;45.40;35.50;;;;;;4834126;29;20055;-74
2023/05/31 16:05:20;;;;;;;3.17;1.42;;;44.90;36.10;;;;;;4834164;29;20049;-73
2023/05/31 16:07:46;;;;;;;3.58;1.40;;;44.40;34.70;;;;;;4833850;29;20088;-73
2023/05/31 16:10:12;;;;;;;6.00;1.50;;;45.10;35.20;;;;;;4825206;29;20030;-74
2023/05/31 16:12:39;;;;;;;3.72;1.30;;;45.40;36.10;;;;;;4815688;29;20095;-73
2023/05/31 16:15:05;;;;;;;;;;;45.70;35.80;;;;;;4815337;29;20073;-72
2023/05/31 16:17:31;;;;;;;5.23;1.47;;;45.90;35.90;;;;;;4816224;29;19905;-75
2023/05/31 16:19:56;;;;;;;4.55;1.30;;;45.50;37.40;;;;;;4815915;29;20038;-72
2023/05/31 16:22:22;;;;;;;3.05;1.20;;;45.50;37.00;;;;;;4815511;29;20100;-72
2023/05/31 16:24:49;;;;;;;3.33;1.40;;;45.40;37.50;;;;;;4815485;29;20051;-72
2023/05/31 16:27:15;;;;;;;4.50;1.08;;;45.10;38.10;;;;;;4815820;29;20042;-73
2023/05/31 16:29:41;;;;;;;3.42;1.38;;;44.80;40.40;;;;;;4815440;29;20340;-72
2023/05/31 16:32:07;;;;;;;3.72;1.50;;;43.70;36.80;;;;;;4816078;29;20042;-74
2023/05/31 16:34:32;;;;;;;2.72;1.33;;;44.40;37.50;;;;;;4815818;29;20038;-72
2023/05/31 16:36:58;;;;;;;3.85;1.48;;;44.00;37.70;;;;;;4815629;29;20061;-73
2023/05/31 16:39:25;;;;;;;5.32;1.58;;;42.90;41.00;;;;;;4815749;29;20043;-71
2023/05/31 16:41:51;;;;;;;4.20;1.77;;;43.80;38.80;;;;;;4814131;29;20071;-72
2023/05/31 16:44:17;;;;;;;9.80;1.92;;;44.30;39.00;;;;;;4834417;29;20212;-72
2023/05/31 16:46:43;;;;;;;3.55;1.67;;;42.70;39.00;;;;;;4834714;29;20327;-73
2023/05/31 16:49:09;;;;;;;3.60;1.37;;;41.70;40.30;;;;;;4834781;29;20092;-73
2023/05/31 16:51:36;;;;;;;4.50;1.88;;;40.90;37.90;;;;;;4834558;29;20042;-71
2023/05/31 16:54:03;;;;;;;6.32;1.85;;;40.40;36.50;;;;;;4834225;29;20350;-71
2023/05/31 16:56:28;;;;;;;4.07;1.40;;;39.20;41.40;;;;;;4833660;29;20030;-72
2023/05/31 16:58:54;;;;;;;4.00;1.42;;;37.80;38.60;;;;;;4833468;29;20864;-74
2023/05/31 17:01:20;;;;;;;3.25;1.23;;;37.70;35.60;;;;;;4817041;29;20033;-75
2023/05/31 17:03:47;;;;;;;3.85;1.67;;;37.60;36.10;;;;;;4833318;29;20043;-72
2023/05/31 17:06:13;;;;;;;4.07;1.83;;;38.50;35.80;;;;;;4833801;29;20045;-72
2023/05/31 17:08:39;;;;;;;3.80;1.33;;;38.80;35.80;;;;;;4816921;29;20034;-73
2023/05/31 17:11:05;;;;;;;4.53;1.48;;;39.60;34.30;;;;;;4817635;29;20213;-72
2023/05/31 17:13:31;;;;;;;3.17;1.38;;;40.30;34.20;;;;;;4815386;29;20037;-72
2023/05/31 17:15:56;;;;;;;3.65;1.20;;;40.50;34.30;;;;;;4814999;29;20506;-72
2023/05/31 17:18:22;;;;;;;3.65;1.52;;;40.40;34.30;;;;;;4815425;29;20035;-72
2023/05/31 17:20:48;;;;;;;3.13;1.90;;;41.30;35.90;;;;;;4814797;29;20095;-71
2023/05/31 17:23:14;;;;;;;3.15;1.25;;;40.80;35.80;;;;;;4815248;29;20254;-74
2023/05/31 17:25:39;;;;;;;4.28;1.40;;;40.40;34.30;;;;;;4814655;29;20042;-72
2023/05/31 17:28:05;;;;;;;3.58;1.73;;;40.80;34.50;;;;;;4815225;29;20030;-72
2023/05/31 17:30:31;;;;;;;4.38;1.60;;;40.50;34.70;;;;;;4802175;29;20169;-72
2023/05/31 17:32:57;;;;;;;4.45;1.50;;;40.60;34.00;;;;;;4826921;29;20038;-73
2023/05/31 17:35:23;;;;;;;5.30;1.55;;;39.90;34.40;;;;;;4833072;29;20039;-73
2023/05/31 17:37:49;;;;;;;4.30;1.67;;;39.70;34.20;;;;;;4833174;29;20037;-72
2023/05/31 17:40:15;;;;;;;6.57;1.70;;;39.00;34.20;;;;;;4833542;29;20099;-73
2023/05/31 17:42:42;;;;;;;3.75;1.48;;;39.10;34.40;;;;;;4833109;29;20038;-74
2023/05/31 17:45:08;;;;;;;3.05;1.60;;;38.60;35.20;;;;;;4802062;29;20026;-72
2023/05/31 17:47:35;;;;;;;4.43;1.35;;;38.40;34.80;;;;;;4833402;29;20383;-74
2023/05/31 17:50:02;;;;;;;4.13;1.52;;;38.10;35.10;;;;;;4832332;29;20038;-74
2023/05/31 17:52:34;;;;;;;3.05;1.40;;;37.90;35.60;;;;;;4833236;29;20033;-74